createdAt,value
2022-12-04T00:01:30.614Z,4.63
2022-12-04T00:04:00.517Z,4.60
2022-12-04T00:06:29.283Z,4.59
2022-12-04T00:08:57.750Z,4.60
2022-12-04T00:11:28.843Z,4.62
2022-12-04T00:14:01.596Z,4.69
2022-12-04T00:16:36.487Z,4.71
2022-12-04T00:19:05.667Z,4.67
2022-12-04T00:21:33.843Z,4.64
2022-12-04T00:24:02.204Z,4.62
2022-12-04T00:26:31.763Z,4.49
2022-12-04T00:29:00.129Z,4.42
2022-12-04T00:31:30.131Z,4.39
2022-12-04T00:34:00.613Z,4.29
2022-12-04T00:36:29.819Z,4.19
2022-12-04T00:39:00.823Z,4.16
2022-12-04T00:41:30.526Z,4.21
2022-12-04T00:43:58.660Z,4.14
2022-12-04T00:46:26.766Z,4.16
2022-12-04T00:48:55.494Z,4.11
2022-12-04T00:51:26.173Z,4.02
2022-12-04T00:53:54.360Z,4.01
2022-12-04T00:56:26.839Z,4.02
2022-12-04T00:58:56.069Z,3.98
2022-12-04T01:01:24.953Z,4.04
2022-12-04T01:03:53.765Z,3.95
2022-12-04T01:06:25.276Z,3.91
2022-12-04T01:08:55.170Z,3.88
2022-12-04T01:11:24.606Z,3.94
2022-12-04T01:13:52.937Z,3.87
2022-12-04T01:16:23.613Z,3.83
2022-12-04T01:18:52.714Z,3.78
2022-12-04T01:21:20.837Z,3.77
2022-12-04T01:23:50.325Z,3.67
2022-12-04T01:26:18.563Z,3.59
2022-12-04T01:28:46.580Z,3.67
2022-12-04T01:31:15.977Z,3.77
2022-12-04T01:33:45.027Z,3.80
2022-12-04T01:36:14.870Z,3.76
2022-12-04T01:38:43.313Z,3.83
2022-12-04T01:41:14.522Z,3.84
2022-12-04T01:43:42.986Z,3.88
2022-12-04T01:46:11.936Z,3.93
2022-12-04T01:48:43.855Z,4.06
2022-12-04T01:51:16.511Z,4.12
2022-12-04T01:53:48.509Z,4.15
2022-12-04T01:56:19.355Z,4.21
2022-12-04T01:58:52.208Z,4.26
2022-12-04T02:01:22.417Z,4.26
2022-12-04T02:03:55.284Z,4.25
2022-12-04T02:06:23.288Z,4.25
2022-12-04T02:08:53.539Z,4.19
2022-12-04T02:11:31.834Z,4.12
2022-12-04T02:14:12.011Z,4.04
2022-12-04T02:16:46.619Z,3.97
2022-12-04T02:19:42.751Z,3.88
2022-12-04T02:22:20.527Z,3.83
2022-12-04T02:24:54.657Z,3.80
2022-12-04T02:27:37.710Z,3.74
2022-12-04T02:30:09.988Z,3.76
2022-12-04T02:32:43.590Z,3.63
2022-12-04T02:35:19.614Z,3.59
2022-12-04T02:37:48.834Z,3.44
2022-12-04T02:40:25.303Z,3.40
2022-12-04T02:42:59.333Z,3.64
2022-12-04T02:45:33.459Z,3.53
2022-12-04T02:48:05.147Z,3.42
2022-12-04T02:50:35.441Z,3.35
2022-12-04T02:53:08.398Z,3.40
2022-12-04T02:55:41.101Z,3.32
2022-12-04T02:58:13.185Z,3.21
2022-12-04T03:00:45.262Z,3.28
2022-12-04T03:03:17.221Z,3.29
2022-12-04T03:05:51.093Z,3.33
2022-12-04T03:08:25.018Z,3.35
2022-12-04T03:10:56.615Z,3.43
2022-12-04T03:13:30.037Z,3.39
2022-12-04T03:16:03.148Z,3.32
2022-12-04T03:18:35.335Z,3.38
2022-12-04T03:21:07.682Z,3.42
2022-12-04T03:23:42.228Z,3.52
2022-12-04T03:26:16.997Z,3.60
2022-12-04T03:28:52.220Z,3.52
2022-12-04T03:31:26.563Z,3.55
2022-12-04T03:33:59.407Z,3.59
2022-12-04T03:36:31.219Z,3.60
2022-12-04T03:39:02.734Z,3.55
2022-12-04T03:41:35.393Z,3.46
2022-12-04T03:44:12.854Z,3.40
2022-12-04T03:46:49.101Z,3.38
2022-12-04T03:49:22.584Z,3.38
2022-12-04T03:51:57.348Z,3.32
2022-12-04T03:54:29.781Z,3.28
2022-12-04T03:57:02.159Z,3.35
2022-12-04T03:59:35.428Z,3.35
2022-12-04T04:02:06.622Z,3.33
2022-12-04T04:04:37.244Z,3.29
2022-12-04T04:07:10.944Z,3.21
2022-12-04T04:09:43.037Z,3.23
2022-12-04T04:12:14.283Z,3.23
2022-12-04T04:15:04.782Z,3.21
2022-12-04T04:17:55.354Z,3.43
2022-12-04T04:20:46.302Z,3.40
2022-12-04T04:23:33.501Z,3.32
2022-12-04T04:26:04.312Z,3.29
2022-12-04T04:28:34.200Z,3.25
2022-12-04T04:31:15.327Z,3.28
2022-12-04T04:33:51.505Z,3.26
2022-12-04T04:36:31.547Z,3.21
2022-12-04T04:39:03.811Z,3.16
2022-12-04T04:41:40.400Z,3.18
2022-12-04T04:44:16.534Z,3.11
2022-12-04T04:46:51.161Z,3.09
2022-12-04T04:49:23.684Z,3.15
2022-12-04T04:51:51.826Z,3.11
2022-12-04T04:54:21.151Z,3.12
2022-12-04T04:56:49.363Z,3.01
2022-12-04T04:59:19.317Z,3.02
2022-12-04T05:01:48.060Z,3.01
2022-12-04T05:04:16.789Z,3.01
2022-12-04T05:06:46.126Z,3.00
2022-12-04T05:09:14.323Z,2.92
2022-12-04T05:11:42.325Z,2.97
2022-12-04T05:14:10.373Z,2.98
2022-12-04T05:16:40.069Z,3.00
2022-12-04T05:19:25.478Z,3.04
2022-12-04T05:21:54.866Z,2.97
2022-12-04T05:24:23.032Z,2.90
2022-12-04T05:26:50.993Z,2.85
2022-12-04T05:29:18.999Z,2.87
2022-12-04T05:31:47.075Z,2.85
2022-12-04T05:34:15.394Z,2.83
2022-12-04T05:36:43.361Z,2.80
2022-12-04T05:39:12.666Z,2.74
2022-12-04T05:41:40.593Z,2.79
2022-12-04T05:44:08.539Z,2.77
2022-12-04T05:46:36.513Z,2.79
2022-12-04T05:49:04.980Z,2.67
2022-12-04T05:51:33.139Z,2.64
2022-12-04T05:54:01.142Z,2.73
2022-12-04T05:56:30.526Z,2.76
2022-12-04T05:58:59.115Z,2.71
2022-12-04T06:01:27.154Z,2.73
2022-12-04T06:03:55.158Z,2.71
2022-12-04T06:06:25.122Z,2.77
2022-12-04T06:08:56.840Z,2.77
2022-12-04T06:11:28.226Z,2.79
2022-12-04T06:13:58.502Z,2.64
2022-12-04T06:16:28.538Z,2.67
2022-12-04T06:18:58.629Z,2.76
2022-12-04T06:21:28.732Z,2.71
2022-12-04T06:23:57.104Z,2.85
2022-12-04T06:26:26.087Z,2.83
2022-12-04T06:28:55.110Z,2.88
2022-12-04T06:31:25.608Z,2.94
2022-12-04T06:33:55.187Z,2.91
2022-12-04T06:36:23.639Z,2.98
2022-12-04T06:38:52.779Z,3.02
2022-12-04T06:41:22.360Z,3.11
2022-12-04T06:43:51.878Z,3.21
2022-12-04T06:46:22.394Z,3.19
2022-12-04T06:48:52.796Z,3.22
2022-12-04T06:51:22.643Z,3.23
2022-12-04T06:53:50.827Z,3.42
2022-12-04T06:56:20.945Z,3.53
2022-12-04T06:58:50.608Z,3.49
2022-12-04T07:01:21.063Z,3.49
2022-12-04T07:03:51.972Z,3.56
2022-12-04T07:06:22.144Z,3.60
2022-12-04T07:08:51.822Z,3.53
2022-12-04T07:11:21.592Z,3.59
2022-12-04T07:13:50.095Z,3.66
2022-12-04T07:16:20.534Z,3.70
2022-12-04T07:18:50.442Z,3.74
2022-12-04T07:21:22.216Z,3.76
2022-12-04T07:23:51.202Z,3.91
2022-12-04T07:26:19.901Z,3.97
2022-12-04T07:28:48.359Z,4.14
2022-12-04T07:31:18.787Z,4.21
2022-12-04T07:33:47.856Z,4.35
2022-12-04T07:36:17.562Z,4.43
2022-12-04T07:38:47.685Z,4.50
2022-12-04T07:41:16.062Z,4.57
2022-12-04T07:43:44.532Z,4.66
2022-12-04T07:46:15.182Z,4.77
2022-12-04T07:48:44.080Z,4.87
2022-12-04T07:51:14.658Z,4.98
2022-12-04T07:53:50.005Z,5.07
2022-12-04T07:56:18.718Z,5.17
2022-12-04T07:58:47.378Z,5.15
2022-12-04T08:01:17.079Z,5.22
2022-12-04T08:03:48.757Z,5.11
2022-12-04T08:06:18.575Z,5.10
2022-12-04T08:08:48.952Z,5.02
2022-12-04T08:11:19.563Z,5.00
2022-12-04T08:13:48.057Z,5.02
2022-12-04T08:16:17.127Z,5.07
2022-12-04T08:18:48.704Z,5.05
2022-12-04T08:21:19.463Z,5.11
2022-12-04T08:23:50.797Z,5.18
2022-12-04T08:26:20.005Z,5.24
2022-12-04T08:28:49.065Z,5.31
2022-12-04T08:31:20.310Z,5.35
2022-12-04T08:33:49.756Z,5.46
2022-12-04T08:36:21.530Z,5.50
2022-12-04T08:38:51.225Z,5.56
2022-12-04T08:41:24.101Z,5.57
2022-12-04T08:43:54.758Z,5.60
2022-12-04T08:46:23.850Z,5.74
2022-12-04T08:48:52.380Z,5.81
2022-12-04T08:51:24.196Z,5.90
2022-12-04T08:53:56.898Z,6.03
2022-12-04T08:56:26.266Z,6.10
2022-12-04T08:58:56.268Z,6.18
2022-12-04T09:01:27.797Z,6.26
2022-12-04T09:03:56.474Z,6.29
2022-12-04T09:06:25.220Z,6.32
2022-12-04T09:08:56.340Z,6.35
2022-12-04T09:11:27.718Z,6.41
2022-12-04T09:13:56.043Z,6.50
2022-12-04T09:16:27.765Z,6.56
2022-12-04T09:18:56.349Z,6.65
2022-12-04T09:21:26.151Z,6.70
2022-12-04T09:23:55.919Z,6.69
2022-12-04T09:26:28.561Z,6.72
2022-12-04T09:28:59.378Z,6.77
2022-12-04T09:31:29.007Z,6.86
2022-12-04T09:33:59.891Z,6.87
2022-12-04T09:36:30.936Z,6.93
2022-12-04T09:39:00.825Z,7.00
2022-12-04T09:42:02.014Z,7.08
2022-12-04T09:44:34.849Z,7.11
2022-12-04T09:47:06.090Z,7.21
2022-12-04T09:49:37.780Z,7.24
2022-12-04T09:52:21.710Z,7.24
2022-12-04T09:54:54.187Z,7.28
2022-12-04T09:57:26.596Z,7.39
2022-12-04T09:59:56.179Z,7.38
2022-12-04T10:02:40.188Z,7.42
2022-12-04T10:05:17.346Z,7.44
2022-12-04T10:07:55.614Z,7.46
2022-12-04T10:10:40.253Z,7.54
2022-12-04T10:13:26.730Z,7.65
2022-12-04T10:16:03.055Z,7.70
2022-12-04T10:18:41.182Z,7.80
2022-12-04T10:21:32.236Z,7.72
2022-12-04T10:24:21.285Z,7.82
2022-12-04T10:26:52.115Z,7.93
2022-12-04T10:29:23.682Z,7.98
2022-12-04T10:31:55.422Z,7.97
2022-12-04T10:34:28.067Z,7.89
2022-12-04T10:37:01.191Z,7.93
2022-12-04T10:39:36.721Z,7.98
2022-12-04T10:42:12.435Z,7.83
2022-12-04T10:44:40.659Z,7.75
2022-12-04T10:47:13.358Z,7.80
2022-12-04T10:49:41.640Z,7.79
2022-12-04T10:52:12.500Z,7.80
2022-12-04T10:54:48.978Z,7.89
2022-12-04T10:57:18.590Z,7.93
2022-12-04T10:59:52.599Z,7.73
2022-12-04T11:02:23.897Z,7.91
2022-12-04T11:04:55.433Z,7.96
2022-12-04T11:07:25.457Z,7.97
2022-12-04T11:10:03.397Z,8.07
2022-12-04T11:12:33.990Z,8.07
2022-12-04T11:15:05.272Z,7.91
2022-12-04T11:17:34.959Z,7.89
2022-12-04T11:20:06.250Z,7.93
2022-12-04T11:22:48.512Z,7.91
2022-12-04T11:25:20.243Z,7.98
2022-12-04T11:27:53.008Z,8.08
2022-12-04T11:30:31.245Z,8.11
2022-12-04T11:33:02.515Z,8.17
2022-12-04T11:35:34.067Z,8.07
2022-12-04T11:38:08.686Z,8.17
2022-12-04T11:40:38.274Z,8.21
2022-12-04T11:43:15.505Z,8.27
2022-12-04T11:45:54.771Z,8.20
2022-12-04T11:48:23.580Z,8.17
2022-12-04T11:50:59.148Z,8.21
2022-12-04T11:53:38.740Z,8.18
2022-12-04T11:56:18.568Z,8.07
2022-12-04T11:59:08.374Z,8.11
2022-12-04T12:01:44.931Z,8.11
2022-12-04T12:04:33.714Z,8.15
2022-12-04T12:07:15.340Z,8.31
2022-12-04T12:09:49.270Z,8.28
2022-12-04T12:12:27.247Z,8.31
2022-12-04T12:15:05.968Z,8.30
2022-12-04T12:17:47.140Z,8.30
2022-12-04T12:20:24.399Z,8.30
2022-12-04T12:23:10.635Z,8.24
2022-12-04T12:25:52.307Z,8.14
2022-12-04T12:28:42.739Z,8.03
2022-12-04T12:31:28.727Z,7.87
2022-12-04T12:34:01.887Z,7.83
2022-12-04T12:36:38.761Z,7.86
2022-12-04T12:39:15.266Z,7.89
2022-12-04T12:41:48.604Z,7.84
2022-12-04T12:44:22.539Z,7.79
2022-12-04T12:47:03.311Z,7.77
2022-12-04T12:49:36.955Z,7.80
2022-12-04T12:52:13.933Z,7.77
2022-12-04T12:54:49.388Z,7.75
2022-12-04T12:57:21.772Z,7.79
2022-12-04T12:59:55.635Z,7.69
2022-12-04T13:02:29.712Z,7.66
2022-12-04T13:05:01.499Z,7.67
2022-12-04T13:07:38.624Z,7.65
2022-12-04T13:10:14.545Z,7.66
2022-12-04T13:12:46.558Z,7.61
2022-12-04T13:15:22.907Z,7.58
2022-12-04T13:17:55.722Z,7.54
2022-12-04T13:20:29.682Z,7.49
2022-12-04T13:23:11.634Z,7.51
2022-12-04T13:25:51.749Z,7.46
2022-12-04T13:28:36.427Z,7.45
2022-12-04T13:31:14.319Z,7.45
2022-12-04T13:34:10.093Z,7.39
2022-12-04T13:36:59.559Z,7.32
2022-12-04T13:40:15.297Z,7.29
2022-12-04T13:42:43.816Z,7.22
2022-12-04T13:45:24.185Z,7.15
2022-12-04T13:47:58.287Z,7.08
2022-12-04T13:50:34.027Z,7.04
2022-12-04T13:53:02.124Z,7.01
2022-12-04T13:55:32.574Z,6.99
2022-12-04T13:58:02.493Z,6.96
2022-12-04T14:00:33.325Z,6.94
2022-12-04T14:03:05.340Z,7.00
2022-12-04T14:05:42.667Z,6.93
2022-12-04T14:08:25.458Z,6.93
2022-12-04T14:11:02.946Z,6.86
2022-12-04T14:13:42.901Z,6.89
2022-12-04T14:16:21.763Z,6.89
2022-12-04T14:18:52.211Z,6.84
2022-12-04T14:21:21.939Z,6.81
2022-12-04T14:23:51.406Z,6.79
2022-12-04T14:26:42.865Z,6.70
2022-12-04T14:29:35.637Z,6.70
2022-12-04T14:32:10.532Z,6.70
2022-12-04T14:34:39.275Z,6.69
2022-12-04T14:37:21.858Z,6.65
2022-12-04T14:39:50.840Z,6.69
2022-12-04T14:42:25.395Z,6.68
2022-12-04T14:44:56.700Z,6.69
2022-12-04T14:47:36.802Z,6.72
2022-12-04T14:50:24.476Z,6.66
2022-12-04T14:52:59.636Z,6.68
2022-12-04T14:55:34.137Z,6.65
2022-12-04T14:58:24.985Z,6.66
2022-12-04T15:00:54.958Z,6.57
2022-12-04T15:03:23.654Z,6.56
2022-12-04T15:05:52.556Z,6.49
2022-12-04T15:08:24.670Z,6.49
2022-12-04T15:11:10.385Z,6.49
2022-12-04T15:13:40.535Z,6.52
2022-12-04T15:16:16.687Z,6.52
2022-12-04T15:18:54.651Z,6.53
2022-12-04T15:21:23.775Z,6.52
2022-12-04T15:23:53.600Z,6.54
2022-12-04T15:26:24.883Z,6.53
2022-12-04T15:28:57.383Z,6.50
2022-12-04T15:31:29.354Z,6.45
2022-12-04T15:34:00.217Z,6.43
2022-12-04T15:36:41.781Z,6.42
2022-12-04T15:39:16.775Z,6.38
2022-12-04T15:41:45.150Z,6.38
2022-12-04T15:44:29.311Z,6.35
2022-12-04T15:47:00.504Z,6.35
2022-12-04T15:49:30.264Z,6.50
2022-12-04T15:52:07.638Z,6.56
2022-12-04T15:54:37.651Z,6.50
2022-12-04T15:57:09.599Z,6.48
2022-12-04T15:59:37.749Z,6.49
2022-12-04T16:02:22.025Z,6.49
2022-12-04T16:04:54.060Z,6.48
2022-12-04T16:07:25.627Z,6.52
2022-12-04T16:10:02.807Z,6.53
2022-12-04T16:12:33.259Z,6.50
2022-12-04T16:15:01.282Z,6.53
2022-12-04T16:17:33.270Z,6.52
2022-12-04T16:20:02.143Z,6.52
2022-12-04T16:22:32.324Z,6.53
2022-12-04T16:25:01.720Z,6.56
2022-12-04T16:27:29.900Z,6.54
2022-12-04T16:29:57.946Z,6.59
2022-12-04T16:32:29.992Z,6.61
2022-12-04T16:34:58.533Z,6.57
2022-12-04T16:37:30.021Z,6.63
2022-12-04T16:39:58.820Z,6.61
2022-12-04T16:42:30.323Z,6.59
2022-12-04T16:45:00.576Z,6.68
2022-12-04T16:47:28.936Z,6.62
2022-12-04T16:49:56.994Z,6.53
2022-12-04T16:52:25.074Z,6.56
2022-12-04T16:54:53.300Z,6.54
2022-12-04T16:57:23.461Z,6.54
2022-12-04T16:59:52.871Z,6.53
2022-12-04T17:02:27.300Z,6.50
2022-12-04T17:04:57.902Z,6.49
2022-12-04T17:07:26.427Z,6.45
2022-12-04T17:09:56.573Z,6.42
2022-12-04T17:12:25.714Z,6.42
2022-12-04T17:14:55.357Z,6.35
2022-12-04T17:17:23.649Z,6.38
2022-12-04T17:19:51.643Z,6.34
2022-12-04T17:22:23.531Z,6.34
2022-12-04T17:24:55.905Z,6.35
2022-12-04T17:27:24.729Z,6.35
2022-12-04T17:29:54.236Z,6.34
2022-12-04T17:32:22.633Z,6.32
2022-12-04T17:34:53.690Z,6.36
2022-12-04T17:37:22.611Z,6.34
2022-12-04T17:39:50.676Z,6.29
2022-12-04T17:42:19.163Z,6.34
2022-12-04T17:44:47.555Z,6.35
2022-12-04T17:47:17.093Z,6.35
2022-12-04T17:49:49.794Z,6.31
2022-12-04T17:52:19.179Z,6.25
2022-12-04T17:54:49.991Z,6.25
2022-12-04T17:57:18.206Z,6.26
2022-12-04T17:59:46.505Z,6.25
2022-12-04T18:02:16.164Z,6.26
2022-12-04T18:04:44.381Z,6.29
2022-12-04T18:07:12.464Z,6.25
2022-12-04T18:09:40.746Z,6.32
2022-12-04T18:12:09.360Z,6.31
2022-12-04T18:14:38.417Z,6.31
2022-12-04T18:17:06.720Z,6.35
2022-12-04T18:19:36.173Z,6.38
2022-12-04T18:22:06.359Z,6.36
2022-12-04T18:24:34.466Z,6.34
2022-12-04T18:27:03.761Z,6.31
2022-12-04T18:29:34.108Z,6.25
2022-12-04T18:32:02.363Z,6.25
2022-12-04T18:34:33.185Z,6.21
2022-12-04T18:37:02.660Z,6.26
2022-12-04T18:39:30.734Z,6.21
2022-12-04T18:41:58.699Z,6.20
2022-12-04T18:44:27.226Z,6.15
2022-12-04T18:46:55.407Z,6.11
2022-12-04T18:49:23.477Z,6.13
2022-12-04T18:51:51.742Z,6.13
2022-12-04T18:54:22.880Z,6.11
2022-12-04T18:56:52.082Z,6.07
2022-12-04T18:59:21.809Z,6.10
2022-12-04T19:01:51.118Z,6.05
2022-12-04T19:04:20.524Z,5.98
2022-12-04T19:06:52.260Z,5.97
2022-12-04T19:09:40.932Z,5.94
2022-12-04T19:12:11.992Z,5.90
2022-12-04T19:14:40.119Z,5.90
2022-12-04T19:17:08.363Z,5.87
2022-12-04T19:19:36.532Z,5.83
2022-12-04T19:22:05.417Z,5.81
2022-12-04T19:24:35.357Z,5.87
2022-12-04T19:27:10.945Z,5.86
2022-12-04T19:29:40.116Z,5.83
2022-12-04T19:32:09.104Z,5.76
2022-12-04T19:34:38.375Z,5.76
2022-12-04T19:37:06.971Z,5.73
2022-12-04T19:39:36.458Z,5.74
2022-12-04T19:42:04.692Z,5.73
2022-12-04T19:44:48.423Z,5.69
2022-12-04T19:47:17.269Z,5.71
2022-12-04T19:49:45.413Z,5.69
2022-12-04T19:52:14.044Z,5.63
2022-12-04T19:54:43.684Z,5.63
2022-12-04T19:57:13.031Z,5.65
2022-12-04T19:59:57.885Z,5.65
2022-12-04T20:02:26.497Z,5.71
2022-12-04T20:04:54.647Z,5.67
2022-12-04T20:07:23.373Z,5.67
2022-12-04T20:09:55.531Z,5.71
2022-12-04T20:12:24.571Z,5.71
2022-12-04T20:14:55.329Z,5.67
2022-12-04T20:17:28.837Z,5.70
2022-12-04T20:19:57.284Z,5.66
2022-12-04T20:22:25.603Z,5.69
2022-12-04T20:24:55.320Z,5.63
2022-12-04T20:27:23.410Z,5.60
2022-12-04T20:29:53.637Z,5.59
2022-12-04T20:32:22.012Z,5.57
2022-12-04T20:34:50.509Z,5.52
2022-12-04T20:37:18.629Z,5.48
2022-12-04T20:39:46.604Z,5.46
2022-12-04T20:42:16.445Z,5.43
2022-12-04T20:44:44.567Z,5.46
2022-12-04T20:47:12.829Z,5.42
2022-12-04T20:49:41.222Z,5.43
2022-12-04T20:52:10.664Z,5.39
2022-12-04T20:54:41.541Z,5.38
2022-12-04T20:57:11.986Z,5.32
2022-12-04T20:59:41.374Z,5.34
2022-12-04T21:02:09.514Z,5.34
2022-12-04T21:04:38.780Z,5.29
2022-12-04T21:07:06.909Z,5.27
2022-12-04T21:09:35.550Z,5.27
2022-12-04T21:12:25.484Z,5.24
2022-12-04T21:15:17.605Z,5.24
2022-12-04T21:17:47.811Z,5.17
2022-12-04T21:20:16.542Z,5.14
2022-12-04T21:22:44.874Z,5.10
2022-12-04T21:25:13.379Z,5.10
2022-12-04T21:27:41.588Z,5.08
2022-12-04T21:30:12.295Z,5.11
2022-12-04T21:32:40.757Z,5.12
2022-12-04T21:35:09.754Z,5.10
2022-12-04T21:37:38.311Z,5.10
2022-12-04T21:40:08.852Z,5.14
2022-12-04T21:42:39.052Z,5.11
2022-12-04T21:45:09.099Z,5.14
2022-12-04T21:47:38.953Z,5.07
2022-12-04T21:50:08.777Z,5.07
2022-12-04T21:52:37.158Z,5.02
2022-12-04T21:55:05.964Z,5.04
2022-12-04T21:57:34.862Z,5.00
2022-12-04T22:00:04.239Z,5.00
2022-12-04T22:02:35.006Z,4.98
2022-12-04T22:05:05.272Z,5.01
2022-12-04T22:07:33.808Z,5.01
2022-12-04T22:10:07.058Z,4.97
2022-12-04T22:12:49.687Z,4.95
2022-12-04T22:15:19.281Z,4.98
2022-12-04T22:17:47.609Z,4.94
2022-12-04T22:20:17.358Z,4.87
2022-12-04T22:22:45.435Z,4.83
2022-12-04T22:25:14.566Z,4.80
2022-12-04T22:27:42.695Z,4.79
2022-12-04T22:30:14.443Z,4.81
2022-12-04T22:32:42.517Z,4.79
2022-12-04T22:35:10.992Z,4.80
2022-12-04T22:37:44.263Z,4.77
2022-12-04T22:40:14.160Z,4.79
2022-12-04T22:42:42.074Z,4.73
2022-12-04T22:45:11.273Z,4.74
2022-12-04T22:47:39.388Z,4.73
2022-12-04T22:50:08.992Z,4.64
2022-12-04T22:52:37.110Z,4.59
2022-12-04T22:55:07.428Z,4.50
2022-12-04T22:57:36.240Z,4.39
2022-12-04T23:00:05.363Z,4.41
2022-12-04T23:02:34.277Z,4.38
2022-12-04T23:05:02.303Z,4.41
2022-12-04T23:07:30.491Z,4.46
2022-12-04T23:09:58.697Z,4.45
2022-12-04T23:12:29.695Z,4.49
2022-12-04T23:14:57.633Z,4.49
2022-12-04T23:17:25.710Z,4.49
2022-12-04T23:19:53.697Z,4.49
2022-12-04T23:22:21.659Z,4.48
2022-12-04T23:24:49.797Z,4.57
2022-12-04T23:27:17.803Z,4.54
2022-12-04T23:29:54.214Z,4.53
2022-12-04T23:32:22.292Z,4.52
2022-12-04T23:34:50.342Z,4.57
2022-12-04T23:37:18.795Z,4.64
2022-12-04T23:39:46.804Z,4.57
2022-12-04T23:42:14.871Z,4.57
2022-12-04T23:44:42.798Z,4.60
2022-12-04T23:47:13.254Z,4.60
2022-12-04T23:49:41.272Z,4.59
2022-12-04T23:52:09.221Z,4.52
2022-12-04T23:54:37.730Z,4.52
2022-12-04T23:57:05.826Z,4.52
2022-12-04T23:59:33.918Z,4.49
